Milwaukee General Mitchell International Airport (MKE)


Airport Diagram
Current Weather/Forecast (MVFR Conditions)
METAR KMKE 252252Z 29006KT 10SM OVC013 02/M01 A2981 RMK AO2 SLP101 T00171011
TAF KMKE 251911Z 2519/2624 29008KT P6SM FEW009 OVC014

All Charts
General
Chart Name Download
AIRPORT DIAGRAM
TAKEOFF MINIMUMS
HOT SPOT

Departures
Chart Name Download
ACCRA FOUR (RNAV)
MITCHELL SIX
UECKR FIVE (RNAV)

Arrivals
Chart Name Download
GOPAC TWO (RNAV)

Approaches
Chart Name Download
ILS OR LOC RWY 01L
ILS OR LOC RWY 07R
ILS OR LOC RWY 19R
ILS RWY 01L (CAT II - III)
RNAV (RNP) Y RWY 07R
RNAV (RNP) Y RWY 25L
RNAV (GPS) RWY 01L
RNAV (GPS) RWY 01R
RNAV (GPS) RWY 07L
RNAV (GPS) RWY 13
RNAV (GPS) RWY 19L
RNAV (GPS) RWY 19R
RNAV (GPS) RWY 25R
RNAV (GPS) RWY 31
RNAV (GPS) Z RWY 07R
RNAV (GPS) Z RWY 25L
LOC RWY 25L